Terminal Aerodrome Forecast
Issued by NWS Twin Cities, MN

Home | Current Version | Previous Version | Text Only | Print | Product List | Glossary On
Versions: 1 2 3 4 5 6 7 8 9 10 11 12 13 14 15 16 17 18 19 20 21 22 23 24 25 26 27
000
FTUS43 KMPX 211405 AAB
TAFMSP
TAF AMD
KMSP 211405Z 2114/2218 17011G18KT 6SM -SHRA VCTS OVC015CB
     FM211600 16015G24KT P6SM OVC016
     FM220000 18012KT 6SM -RA BR OVC020
     FM220400 23008KT 6SM BR OVC040
     FM220800 27006KT P6SM SCT120=

USA.gov is the U.S. government's official web portal to all federal, state and local government web resources and services.